Time;durP1;ratioP1;P1;durP2;ratioP2;P2;SDS_P1;SDS_P2;PMS_P1;PMS_P2;Temp;Humidity;BMP_temperature;BMP_pressure;BME280_temperature;BME280_humidity;BME280_pressure;Samples;Min_cycle;Max_cycle;Signal;HPM_P1;HPM_P2
2020/12/23 00:00:25;;;;;;;1.23;0.88;;;;;;;8.42;100.00;96182.97;1040083;28;20009;-69
2020/12/23 00:00:55;;;;;;;1.55;0.90;;;;;;;8.41;100.00;96178.72;1036715;28;20378;-70
2020/12/23 00:01:26;;;;;;;0.98;0.88;;;;;;;8.39;100.00;96175.53;1036295;28;20105;-69
2020/12/23 00:01:59;;;;;;;0.70;0.70;;;;;;;8.40;100.00;96180.53;1036797;28;20108;-70
2020/12/23 00:02:29;;;;;;;0.80;0.70;;;;;;;8.38;100.00;96171.28;1041252;28;20013;-72
2020/12/23 00:02:59;;;;;;;0.88;0.77;;;;;;;8.46;100.00;96173.47;1044446;28;20260;-69
2020/12/23 00:03:30;;;;;;;2.13;0.80;;;;;;;8.41;100.00;96174.25;1041125;28;20405;-70
2020/12/23 00:04:00;;;;;;;2.10;0.60;;;;;;;8.44;100.00;96171.09;1041118;28;20033;-70
2020/12/23 00:04:31;;;;;;;1.52;0.70;;;;;;;8.46;100.00;96170.84;1040869;28;20018;-71
2020/12/23 00:05:05;;;;;;;0.60;0.60;;;;;;;8.46;100.00;96170.84;1041127;28;20030;-70
2020/12/23 00:05:36;;;;;;;0.73;0.57;;;;;;;8.48;100.00;96171.38;1040743;28;20056;-71
2020/12/23 00:06:06;;;;;;;0.82;0.63;;;;;;;8.49;100.00;96175.63;1040886;28;20379;-70
2020/12/23 00:06:37;;;;;;;1.42;0.40;;;;;;;8.48;100.00;96169.56;1040788;28;20013;-70
2020/12/23 00:07:08;;;;;;;0.68;0.45;;;;;;;8.45;100.00;96171.91;1040896;28;20021;-69
2020/12/23 00:07:38;;;;;;;0.55;0.40;;;;;;;8.45;100.00;96164.78;1041071;28;20013;-71
2020/12/23 00:08:09;;;;;;;0.50;0.50;;;;;;;8.45;100.00;96169.28;1040968;28;20009;-70
2020/12/23 00:08:39;;;;;;;1.02;0.60;;;;;;;8.47;100.00;96167.97;1040886;28;20025;-69
2020/12/23 00:09:10;;;;;;;0.57;0.50;;;;;;;8.52;100.00;96169.81;1040781;28;20060;-71
2020/12/23 00:09:43;;;;;;;1.40;0.50;;;;;;;8.50;100.00;96166.66;1040756;28;20389;-73
2020/12/23 00:10:14;;;;;;;1.15;0.40;;;;;;;8.46;100.00;96165.56;1041334;28;20097;-69
2020/12/23 00:10:44;;;;;;;1.95;0.55;;;;;;;8.51;100.00;96171.69;1044793;28;20262;-72
2020/12/23 00:11:15;;;;;;;1.15;0.50;;;;;;;8.52;100.00;96167.19;1044295;28;20060;-69
2020/12/23 00:11:53;;;;;;;0.85;0.60;;;;;;;8.53;100.00;96171.44;1040922;28;20022;-72
2020/12/23 00:12:23;;;;;;;0.65;0.50;;;;;;;8.50;100.00;96161.38;1040857;28;20018;-67
2020/12/23 00:12:54;;;;;;;0.82;0.57;;;;;;;8.52;100.00;96164.53;1041005;28;20252;-70
2020/12/23 00:13:25;;;;;;;0.50;0.40;;;;;;;8.49;100.00;96163.22;1040535;28;20076;-67
2020/12/23 00:13:55;;;;;;;1.10;0.52;;;;;;;8.54;100.00;96167.72;1040692;28;20024;-73
2020/12/23 00:14:26;;;;;;;0.70;0.47;;;;;;;8.55;100.00;96167.47;1040598;28;20030;-69
2020/12/23 00:14:56;;;;;;;1.90;0.50;;;;;;;8.57;100.00;96172.50;1040312;28;20398;-68
2020/12/23 00:15:28;;;;;;;0.57;0.57;;;;;;;8.62;100.00;96169.09;1040902;28;20021;-69
2020/12/23 00:16:00;;;;;;;0.40;0.40;;;;;;;8.66;100.00;96163.06;1036576;28;20029;-70
2020/12/23 00:16:30;;;;;;;0.50;0.50;;;;;;;8.68;100.00;96168.88;1036233;28;20340;-69
2020/12/23 00:17:00;;;;;;;3.10;0.70;;;;;;;8.68;100.00;96162.78;1036608;28;20077;-70
2020/12/23 00:17:31;;;;;;;0.60;0.40;;;;;;;8.63;100.00;96158.28;1036879;28;20022;-72
2020/12/23 00:18:01;;;;;;;0.75;0.60;;;;;;;8.65;100.00;96158.03;1040935;28;20025;-69
2020/12/23 00:18:32;;;;;;;0.57;0.40;;;;;;;8.74;100.00;96164.41;1040680;28;20021;-70
2020/12/23 00:19:02;;;;;;;0.50;0.35;;;;;;;8.74;100.00;96164.41;1040679;28;20492;-66
2020/12/23 00:19:33;;;;;;;0.90;0.50;;;;;;;8.74;100.00;96164.41;1040424;28;20029;-70
2020/12/23 00:20:04;;;;;;;1.42;0.52;;;;;;;8.73;100.00;96165.47;1036701;28;20026;-68
2020/12/23 00:20:34;;;;;;;0.40;0.40;;;;;;;8.66;100.00;96156.97;1036478;28;20026;-73
2020/12/23 00:21:07;;;;;;;0.68;0.40;;;;;;;8.68;100.00;96155.69;1036469;28;20030;-72
2020/12/23 00:21:38;;;;;;;0.43;0.30;;;;;;;8.64;100.00;96146.69;1037099;28;20482;-67
2020/12/23 00:22:08;;;;;;;0.60;0.40;;;;;;;8.74;100.00;96154.66;1040959;28;20339;-68
2020/12/23 00:22:39;;;;;;;0.82;0.60;;;;;;;8.81;100.00;96156.25;1044797;28;20020;-68
2020/12/23 00:23:09;;;;;;;0.98;0.65;;;;;;;8.82;100.00;96152.56;1044773;28;20029;-71
2020/12/23 00:23:40;;;;;;;0.80;0.57;;;;;;;8.82;99.71;96156.00;1044646;28;20041;-68
2020/12/23 00:24:10;;;;;;;2.53;0.70;;;;;;;8.82;99.86;96153.38;1040900;28;20036;-69
2020/12/23 00:24:41;;;;;;;0.77;0.50;;;;;;;8.86;99.66;96148.34;1040543;28;20021;-69
2020/12/23 00:25:12;;;;;;;1.48;0.50;;;;;;;8.83;99.55;96148.88;1040580;28;20032;-67
2020/12/23 00:25:42;;;;;;;0.73;0.52;;;;;;;8.81;99.61;96154.41;1040571;28;20271;-69
2020/12/23 00:26:13;;;;;;;1.90;0.50;;;;;;;8.82;99.63;96144.63;1036543;28;20034;-69
2020/12/23 00:26:44;;;;;;;0.32;0.30;;;;;;;8.80;99.63;96152.03;1040638;28;20100;-71
2020/12/23 00:27:14;;;;;;;0.40;0.40;;;;;;;8.83;99.54;96154.94;1036569;28;20030;-70
2020/12/23 00:27:45;;;;;;;0.68;0.40;;;;;;;8.80;99.64;96147.56;1036611;28;20030;-67
2020/12/23 00:28:15;;;;;;;0.35;0.35;;;;;;;8.82;99.72;96150.72;1036549;28;20029;-68
2020/12/23 00:28:46;;;;;;;0.32;0.30;;;;;;;8.83;99.63;96149.66;1036525;28;20077;-68
2020/12/23 00:29:16;;;;;;;0.50;0.30;;;;;;;8.86;99.35;96149.16;1040638;28;20088;-70
2020/12/23 00:29:49;;;;;;;1.38;0.50;;;;;;;8.89;99.08;96147.84;1040529;28;20025;-73
2020/12/23 00:30:21;;;;;;;0.40;0.30;;;;;;;8.89;98.94;96148.63;1040913;28;20029;-69
2020/12/23 00:30:52;;;;;;;0.22;0.20;;;;;;;8.87;99.13;96153.38;1040826;28;20283;-65
2020/12/23 00:31:22;;;;;;;1.15;0.57;;;;;;;8.87;98.95;96148.09;1040652;28;20275;-67
2020/12/23 00:31:53;;;;;;;0.30;0.30;;;;;;;8.82;98.96;96144.63;1040831;28;20033;-70
2020/12/23 00:32:27;;;;;;;0.70;0.45;;;;;;;8.83;99.18;96147.03;1040580;28;20232;-72
2020/12/23 00:32:57;;;;;;;0.50;0.40;;;;;;;8.91;98.86;96145.75;1036461;28;20026;-69
2020/12/23 00:33:28;;;;;;;0.50;0.40;;;;;;;8.91;98.71;96149.16;1036435;28;20265;-64
2020/12/23 00:33:58;;;;;;;0.57;0.30;;;;;;;8.88;98.46;96146.25;1037010;28;20026;-69
2020/12/23 00:34:29;;;;;;;0.40;0.40;;;;;;;8.93;98.54;96149.69;1038373;28;20096;-72
2020/12/23 00:34:59;;;;;;;0.20;0.20;;;;;;;8.94;98.58;96146.03;1036519;28;20060;-68
2020/12/23 00:35:30;;;;;;;1.30;0.30;;;;;;;8.92;98.46;96145.50;1036475;28;20076;-66
2020/12/23 00:36:00;;;;;;;0.65;0.35;;;;;;;8.88;98.56;96149.69;1036518;28;20030;-67
2020/12/23 00:36:31;;;;;;;0.57;0.40;;;;;;;8.91;98.53;96149.16;1040615;28;20466;-67
2020/12/23 00:37:02;;;;;;;0.63;0.38;;;;;;;8.89;98.53;96140.72;1044740;28;20036;-68
2020/12/23 00:37:32;;;;;;;0.75;0.38;;;;;;;8.92;98.57;96142.84;1040351;28;20104;-69
2020/12/23 00:38:03;;;;;;;0.30;0.30;;;;;;;8.94;98.43;96145.25;1040385;28;20256;-72
2020/12/23 00:38:33;;;;;;;0.32;0.30;;;;;;;9.02;98.06;96152.66;1036395;28;20058;-67
2020/12/23 00:39:04;;;;;;;0.65;0.40;;;;;;;8.99;98.28;96153.16;1034407;28;20026;-69
2020/12/23 00:39:35;;;;;;;0.50;0.40;;;;;;;9.01;97.99;96147.63;1036360;28;20026;-67
2020/12/23 00:40:05;;;;;;;0.30;0.30;;;;;;;8.94;98.09;96143.38;1032548;28;20023;-69
2020/12/23 00:40:36;;;;;;;1.30;0.30;;;;;;;8.90;98.41;96144.97;1031870;28;20038;-66
2020/12/23 00:41:08;;;;;;;0.43;0.40;;;;;;;8.89;98.50;96145.22;1036457;28;20030;-69
2020/12/23 00:41:38;;;;;;;0.80;0.50;;;;;;;8.90;98.37;96147.59;1040570;28;20551;-67
2020/12/23 00:42:09;;;;;;;0.47;0.30;;;;;;;8.92;98.24;96142.84;1040438;28;20334;-68
2020/12/23 00:42:39;;;;;;;0.95;0.47;;;;;;;8.95;98.27;96144.16;1040500;28;20014;-72
2020/12/23 00:43:10;;;;;;;0.30;0.30;;;;;;;9.01;97.94;96143.13;1040508;28;20040;-66
2020/12/23 00:43:40;;;;;;;0.65;0.40;;;;;;;9.01;97.77;96147.63;1036355;28;20062;-69
2020/12/23 00:44:11;;;;;;;0.40;0.25;;;;;;;8.98;98.05;96137.56;1040564;28;20033;-68
2020/12/23 00:44:41;;;;;;;0.60;0.47;;;;;;;8.97;98.20;96143.91;1040501;28;20067;-66
2020/12/23 00:45:12;;;;;;;0.60;0.32;;;;;;;8.93;98.06;96141.78;1040658;28;20018;-65
2020/12/23 00:45:42;;;;;;;0.35;0.30;;;;;;;8.97;98.12;96138.63;1044519;28;20053;-67
2020/12/23 00:46:13;;;;;;;0.30;0.30;;;;;;;8.93;98.16;96139.16;1043642;28;20025;-66
2020/12/23 00:46:44;;;;;;;0.50;0.30;;;;;;;8.94;97.86;96134.69;1044040;28;20024;-67
2020/12/23 00:47:14;;;;;;;0.75;0.50;;;;;;;8.94;97.92;96140.75;1040913;28;20041;-71
2020/12/23 00:47:46;;;;;;;1.30;0.40;;;;;;;9.02;97.73;96138.63;1040466;28;20109;-70
2020/12/23 00:48:17;;;;;;;0.60;0.40;;;;;;;9.06;97.60;96142.38;1040474;28;20025;-69
2020/12/23 00:48:48;;;;;;;0.73;0.63;;;;;;;9.01;97.54;96137.06;1036298;28;20257;-69
2020/12/23 00:49:18;;;;;;;0.38;0.38;;;;;;;9.03;97.58;96143.66;1036707;28;20261;-71
2020/12/23 00:49:48;;;;;;;0.88;0.20;;;;;;;9.06;97.38;96137.09;1040192;28;20025;-72
2020/12/23 00:50:19;;;;;;;1.58;0.40;;;;;;;9.01;97.48;96135.22;1036483;28;20379;-71
2020/12/23 00:50:49;;;;;;;0.60;0.40;;;;;;;8.99;97.64;96137.31;1040476;28;20021;-70
2020/12/23 00:51:20;;;;;;;0.38;0.30;;;;;;;8.98;97.79;96134.94;1040444;28;20029;-71
2020/12/23 00:51:50;;;;;;;0.38;0.30;;;;;;;8.98;97.59;96132.28;1040463;28;20021;-68
2020/12/23 00:52:21;;;;;;;0.30;0.20;;;;;;;9.00;97.73;96140.75;1040495;28;20449;-68
2020/12/23 00:52:52;;;;;;;2.28;0.50;;;;;;;8.96;97.74;96137.84;1040376;28;20021;-69
2020/12/23 00:53:22;;;;;;;0.77;0.30;;;;;;;8.89;97.95;96138.06;1040512;28;20048;-70
2020/12/23 00:53:52;;;;;;;1.35;0.30;;;;;;;8.90;97.96;96133.59;1044570;28;20033;-72
2020/12/23 00:54:24;;;;;;;0.60;0.30;;;;;;;8.92;97.92;96132.28;1044627;28;20021;-72
2020/12/23 00:54:55;;;;;;;0.32;0.32;;;;;;;8.94;97.92;96132.03;1048648;28;20489;-69
2020/12/23 00:55:25;;;;;;;2.05;0.60;;;;;;;8.90;97.80;96134.41;1048314;28;20251;-68
2020/12/23 00:55:55;;;;;;;2.00;0.77;;;;;;;8.93;97.69;96135.72;1040746;28;20465;-71
2020/12/23 00:56:27;;;;;;;0.30;0.20;;;;;;;8.93;97.83;96139.16;1040822;28;20392;-69
2020/12/23 00:56:57;;;;;;;0.40;0.30;;;;;;;8.98;98.02;96134.94;1040771;28;20271;-73
2020/12/23 00:57:29;;;;;;;1.33;0.93;;;;;;;8.96;97.67;96132.56;1040646;28;20489;-72
2020/12/23 00:57:59;;;;;;;0.30;0.30;;;;;;;8.94;97.66;96138.09;1040765;28;20417;-72
2020/12/23 00:58:29;;;;;;;0.30;0.20;;;;;;;8.95;97.50;96131.75;1040360;28;20276;-72
2020/12/23 00:59:00;;;;;;;0.20;0.20;;;;;;;8.95;97.47;96131.75;1036281;28;20073;-71
2020/12/23 00:59:31;;;;;;;1.25;0.32;;;;;;;8.95;97.42;96136.25;1040436;28;20068;-71
2020/12/23 01:00:03;;;;;;;0.65;0.40;;;;;;;8.91;97.59;96141.25;1036260;28;20025;-70
2020/12/23 01:00:34;;;;;;;0.20;0.20;;;;;;;8.88;97.80;96130.41;1040812;28;20026;-72
2020/12/23 01:01:04;;;;;;;1.27;0.32;;;;;;;8.91;97.79;96130.69;1043781;28;20334;-71
2020/12/23 01:01:35;;;;;;;0.47;0.30;;;;;;;8.93;97.56;96133.88;1036688;28;20368;-69
2020/12/23 01:02:06;;;;;;;0.38;0.32;;;;;;;8.91;97.64;96133.34;1040471;28;20167;-70
2020/12/23 01:02:36;;;;;;;1.95;0.50;;;;;;;8.93;97.65;96128.59;1040453;28;20017;-71
2020/12/23 01:03:06;;;;;;;0.45;0.40;;;;;;;8.91;97.98;96127.25;1040431;28;20014;-73
2020/12/23 01:03:37;;;;;;;0.73;0.40;;;;;;;8.93;97.42;96130.44;1040386;28;20032;-70
2020/12/23 01:04:07;;;;;;;1.23;0.30;;;;;;;8.98;97.31;96134.94;1040424;28;20067;-69
2020/12/23 01:04:38;;;;;;;0.65;0.40;;;;;;;8.97;97.37;96120.16;1040237;28;20369;-73
2020/12/23 01:05:08;;;;;;;0.28;0.28;;;;;;;8.99;97.18;96126.75;1036372;28;20451;-72
2020/12/23 01:05:39;;;;;;;0.45;0.40;;;;;;;8.97;97.36;96128.88;1036404;28;20101;-71
2020/12/23 01:06:10;;;;;;;0.30;0.30;;;;;;;9.03;97.21;96133.09;1036470;28;20010;-74
2020/12/23 01:06:40;;;;;;;0.52;0.40;;;;;;;9.05;96.98;96130.22;1040412;28;20473;-72
2020/12/23 01:07:10;;;;;;;0.35;0.35;;;;;;;9.06;97.07;96132.59;1040690;28;20483;-71
2020/12/23 01:07:41;;;;;;;0.52;0.30;;;;;;;9.03;97.17;96140.25;1040821;28;20025;-73
2020/12/23 01:08:11;;;;;;;0.40;0.40;;;;;;;9.05;96.97;96136.28;1040574;28;20026;-74
2020/12/23 01:08:43;;;;;;;0.30;0.30;;;;;;;9.07;96.92;96136.81;1040627;28;20033;-75
2020/12/23 01:09:13;;;;;;;1.08;0.40;;;;;;;9.06;97.09;96139.75;1040666;28;20005;-71
2020/12/23 01:09:44;;;;;;;1.80;0.30;;;;;;;9.03;97.25;96141.03;1040625;28;20272;-69
2020/12/23 01:10:14;;;;;;;0.45;0.38;;;;;;;9.05;97.09;96138.13;1040719;28;20052;-72
2020/12/23 01:10:47;;;;;;;0.30;0.30;;;;;;;9.01;97.15;96137.84;1036781;28;20013;-74
2020/12/23 01:11:17;;;;;;;1.08;0.20;;;;;;;9.03;97.17;96143.66;1040366;28;20421;-73
2020/12/23 01:11:48;;;;;;;1.08;0.30;;;;;;;9.04;97.13;96140.00;1040396;28;20299;-72
2020/12/23 01:12:19;;;;;;;0.40;0.30;;;;;;;9.11;96.73;96142.38;1040454;28;20018;-72
2020/12/23 01:12:49;;;;;;;0.40;0.25;;;;;;;9.14;96.50;96141.88;1036093;28;20257;-74
2020/12/23 01:13:20;;;;;;;0.60;0.40;;;;;;;9.11;96.57;96139.72;1032436;28;20021;-74
2020/12/23 01:13:53;;;;;;;0.47;0.30;;;;;;;9.13;96.51;96141.06;1036361;28;20061;-72
2020/12/23 01:14:24;;;;;;;0.47;0.30;;;;;;;9.13;96.46;96137.63;1036392;28;20438;-74
2020/12/23 01:14:54;;;;;;;0.30;0.20;;;;;;;9.15;96.53;96132.88;1036644;28;20291;-74
2020/12/23 01:15:25;;;;;;;0.70;0.40;;;;;;;9.12;96.57;96139.47;1036583;28;20021;-72
2020/12/23 01:15:57;;;;;;;0.52;0.30;;;;;;;9.15;96.30;96135.53;1036451;28;20018;-72
2020/12/23 01:16:31;;;;;;;0.65;0.50;;;;;;;9.17;96.48;96137.91;1036633;28;20022;-71
2020/12/23 01:17:01;;;;;;;0.38;0.30;;;;;;;9.16;96.30;96142.41;1036257;28;20272;-69
2020/12/23 01:17:32;;;;;;;0.40;0.30;;;;;;;9.17;96.35;96140.53;1032131;28;20266;-72
2020/12/23 01:18:03;;;;;;;0.35;0.30;;;;;;;9.10;96.63;96138.94;1032294;28;20085;-67
2020/12/23 01:18:33;;;;;;;0.40;0.40;;;;;;;9.06;96.88;96140.53;1032320;28;20475;-70
2020/12/23 01:19:04;;;;;;;1.40;0.55;;;;;;;9.10;96.66;96141.59;1032476;28;20026;-72
2020/12/23 01:19:34;;;;;;;0.20;0.20;;;;;;;9.13;96.55;96141.06;1036492;28;20097;-71
2020/12/23 01:20:05;;;;;;;0.63;0.50;;;;;;;9.10;96.76;96143.44;1036314;28;20018;-72
2020/12/23 01:20:35;;;;;;;1.27;0.40;;;;;;;9.09;96.76;96139.19;1036599;28;20418;-70
2020/12/23 01:21:07;;;;;;;0.60;0.45;;;;;;;9.07;96.85;96142.09;1036652;28;20022;-69
2020/12/23 01:21:38;;;;;;;0.75;0.40;;;;;;;9.17;96.22;96138.69;1036538;28;20391;-66
2020/12/23 01:22:08;;;;;;;0.50;0.47;;;;;;;9.17;96.30;96137.91;1036623;28;20265;-67
2020/12/23 01:22:39;;;;;;;0.57;0.30;;;;;;;9.16;96.25;96131.84;1036510;28;20036;-72
2020/12/23 01:23:09;;;;;;;0.75;0.47;;;;;;;9.17;96.33;96138.69;1036245;28;20026;-72
2020/12/23 01:23:43;;;;;;;0.30;0.30;;;;;;;9.18;96.30;96137.66;1036236;28;20052;-72
2020/12/23 01:24:13;;;;;;;0.40;0.40;;;;;;;9.19;96.16;96141.88;1036267;28;20017;-70
2020/12/23 01:24:44;;;;;;;1.35;0.30;;;;;;;9.23;96.03;96145.56;1036345;28;20273;-71
2020/12/23 01:25:14;;;;;;;0.43;0.40;;;;;;;9.20;95.97;96138.19;1036721;28;20054;-69
2020/12/23 01:25:45;;;;;;;0.95;0.60;;;;;;;9.23;95.78;96135.00;1036534;28;20014;-71
2020/12/23 01:26:16;;;;;;;0.40;0.40;;;;;;;9.22;95.72;96144.00;1044450;28;20025;-71
2020/12/23 01:26:48;;;;;;;0.75;0.30;;;;;;;9.17;96.13;96140.53;1044362;28;20477;-71
2020/12/23 01:27:18;;;;;;;0.82;0.32;;;;;;;9.14;96.31;96140.00;1044509;28;20243;-68
2020/12/23 01:27:49;;;;;;;0.73;0.35;;;;;;;9.14;96.42;96133.94;1043727;28;20759;-73
2020/12/23 01:28:20;;;;;;;0.30;0.30;;;;;;;9.15;96.27;96132.88;1044483;28;20013;-70
2020/12/23 01:28:50;;;;;;;0.20;0.20;;;;;;;9.13;96.45;96137.63;1040190;28;20120;-68
2020/12/23 01:29:21;;;;;;;0.60;0.40;;;;;;;9.20;95.98;96132.13;1040380;28;20034;-68
2020/12/23 01:29:51;;;;;;;1.55;0.30;;;;;;;9.20;95.84;96143.47;1040243;28;20089;-68
2020/12/23 01:30:22;;;;;;;0.20;0.20;;;;;;;9.21;95.77;96137.13;1036233;28;20105;-72
2020/12/23 01:30:52;;;;;;;0.75;0.38;;;;;;;9.13;96.17;96141.06;1031753;28;20034;-68
2020/12/23 01:31:23;;;;;;;0.30;0.30;;;;;;;9.18;96.13;96136.84;1031723;28;20490;-71
2020/12/23 01:31:53;;;;;;;0.40;0.32;;;;;;;9.32;95.55;96136.09;1032191;28;20026;-74
2020/12/23 01:32:24;;;;;;;0.77;0.47;;;;;;;9.31;95.43;96131.84;1028512;28;20057;-70
2020/12/23 01:32:54;;;;;;;1.40;0.40;;;;;;;9.33;95.12;96140.31;1036299;28;20049;-72
2020/12/23 01:33:25;;;;;;;1.52;0.40;;;;;;;9.30;95.21;96135.56;1036194;28;20025;-70
2020/12/23 01:33:55;;;;;;;0.40;0.30;;;;;;;9.25;95.49;96132.91;1036179;28;20030;-66
2020/12/23 01:34:26;;;;;;;0.63;0.20;;;;;;;9.26;95.46;96139.78;1039018;28;20029;-70
2020/12/23 01:34:56;;;;;;;0.47;0.43;;;;;;;9.19;95.86;96139.22;1040380;28;20482;-68
2020/12/23 01:35:27;;;;;;;0.52;0.40;;;;;;;9.14;95.87;96132.09;1040628;28;20025;-72
2020/12/23 01:35:57;;;;;;;1.02;0.50;;;;;;;9.15;95.69;96132.88;1040573;28;20029;-67
2020/12/23 01:36:28;;;;;;;0.40;0.20;;;;;;;9.16;95.87;96137.13;1040692;28;20021;-72
2020/12/23 01:36:58;;;;;;;0.63;0.50;;;;;;;9.12;96.08;96133.41;1040266;28;20369;-70
2020/12/23 01:37:29;;;;;;;0.52;0.30;;;;;;;9.11;96.12;96134.44;1040233;28;20048;-67
2020/12/23 01:37:59;;;;;;;0.30;0.30;;;;;;;9.12;96.14;96136.06;1036214;28;20026;-65
2020/12/23 01:38:30;;;;;;;1.42;0.40;;;;;;;9.09;96.08;96131.28;1036313;28;20014;-70
2020/12/23 01:39:00;;;;;;;0.25;0.22;;;;;;;9.06;96.40;96137.09;1040359;28;20025;-69
2020/12/23 01:39:31;;;;;;;1.25;0.30;;;;;;;9.05;96.20;96130.22;1040284;28;20017;-67
2020/12/23 01:40:03;;;;;;;4.22;0.40;;;;;;;9.07;96.12;96133.38;1040172;28;20025;-72
2020/12/23 01:40:33;;;;;;;0.40;0.20;;;;;;;9.07;95.83;96131.53;1040216;28;20096;-68
2020/12/23 01:41:05;;;;;;;0.30;0.30;;;;;;;9.22;95.55;96136.06;1040334;28;20276;-73
2020/12/23 01:41:35;;;;;;;1.10;0.30;;;;;;;9.15;95.56;96124.97;1040325;28;20433;-72
2020/12/23 01:42:05;;;;;;;1.00;0.55;;;;;;;9.08;95.98;96127.06;1040587;28;20259;-67
2020/12/23 01:42:36;;;;;;;0.57;0.43;;;;;;;9.05;96.08;96133.63;1040539;28;20384;-71
2020/12/23 01:43:10;;;;;;;0.40;0.30;;;;;;;9.09;95.89;96133.91;1040407;28;20017;-69
2020/12/23 01:43:41;;;;;;;0.55;0.50;;;;;;;9.08;95.90;96133.13;1040223;28;20009;-72
2020/12/23 01:44:12;;;;;;;3.13;0.55;;;;;;;9.10;95.90;96135.53;1040286;28;20283;-68
2020/12/23 01:44:42;;;;;;;0.85;0.40;;;;;;;9.09;95.67;96131.28;1040926;28;20293;-74
2020/12/23 01:45:13;;;;;;;1.45;0.47;;;;;;;9.00;95.92;96133.66;1044445;28;20021;-67
2020/12/23 01:45:43;;;;;;;0.75;0.40;;;;;;;8.95;96.49;96134.41;1040230;28;20018;-69
2020/12/23 01:46:15;;;;;;;1.48;0.40;;;;;;;9.00;96.19;96138.09;1039904;28;20025;-67
2020/12/23 01:46:45;;;;;;;0.30;0.30;;;;;;;8.95;96.51;96130.97;1032039;28;20101;-67
2020/12/23 01:47:20;;;;;;;1.13;0.50;;;;;;;8.92;96.68;96139.44;1032087;28;20257;-67
2020/12/23 01:47:50;;;;;;;0.70;0.50;;;;;;;8.93;96.46;96136.50;1036067;28;20490;-72
2020/12/23 01:48:22;;;;;;;0.70;0.40;;;;;;;8.89;96.49;96135.44;1032753;28;20249;-67
2020/12/23 01:48:52;;;;;;;0.68;0.40;;;;;;;8.89;96.67;96140.72;1036085;28;20021;-71
2020/12/23 01:49:23;;;;;;;0.50;0.45;;;;;;;8.90;96.60;96144.97;1031999;28;20253;-72
2020/12/23 01:49:53;;;;;;;0.40;0.40;;;;;;;8.84;96.85;96140.72;1024162;28;20043;-66
2020/12/23 01:50:23;;;;;;;0.40;0.40;;;;;;;8.76;97.11;96141.22;1032131;28;20014;-70
2020/12/23 01:50:57;;;;;;;0.50;0.30;;;;;;;8.80;97.03;96138.81;1028068;28;20022;-70
2020/12/23 01:51:28;;;;;;;0.50;0.40;;;;;;;8.84;96.93;96146.00;1024620;28;20498;-72
2020/12/23 01:51:58;;;;;;;0.30;0.30;;;;;;;8.86;96.83;96141.25;1032026;28;20276;-69
2020/12/23 01:52:29;;;;;;;0.63;0.32;;;;;;;8.84;96.64;96138.06;1028099;28;20018;-70
2020/12/23 01:52:59;;;;;;;0.47;0.20;;;;;;;8.85;96.60;96138.88;1028118;28;20456;-71
2020/12/23 01:53:30;;;;;;;1.45;0.32;;;;;;;8.83;96.79;96135.69;1028157;28;20030;-68
2020/12/23 01:54:00;;;;;;;0.90;0.30;;;;;;;8.83;96.67;96131.19;1032207;28;20030;-69
2020/12/23 01:54:31;;;;;;;1.20;0.40;;;;;;;8.83;96.67;96133.84;1036523;28;20018;-69
2020/12/23 01:55:01;;;;;;;0.68;0.32;;;;;;;8.80;96.52;96129.09;1036045;28;20018;-67
2020/12/23 01:55:32;;;;;;;0.35;0.28;;;;;;;8.75;96.71;96134.34;1036260;28;20010;-67
2020/12/23 01:56:02;;;;;;;0.40;0.40;;;;;;;8.82;96.63;96128.81;1032047;28;20149;-72
2020/12/23 01:56:33;;;;;;;1.48;0.40;;;;;;;8.81;96.56;96132.50;1032115;28;20394;-69
2020/12/23 01:57:03;;;;;;;0.57;0.35;;;;;;;8.77;96.59;96128.81;1028062;28;20048;-70
2020/12/23 01:57:34;;;;;;;2.25;0.38;;;;;;;8.74;96.68;96128.28;1027780;28;20530;-68
2020/12/23 01:58:04;;;;;;;0.45;0.43;;;;;;;8.72;96.97;96122.47;1032005;28;20018;-68
2020/12/23 01:58:35;;;;;;;0.73;0.35;;;;;;;8.72;96.98;96119.00;1028324;28;20073;-69
2020/12/23 01:59:05;;;;;;;0.30;0.30;;;;;;;8.68;97.29;96124.03;1036186;28;20395;-69
2020/12/23 01:59:37;;;;;;;1.15;0.30;;;;;;;8.68;97.10;96129.31;1036105;28;20379;-68
2020/12/23 02:00:07;;;;;;;1.45;0.47;;;;;;;8.68;97.08;96133.75;1036105;28;20014;-69
2020/12/23 02:00:39;;;;;;;0.30;0.30;;;;;;;8.56;97.43;96126.06;1036383;28;20284;-71
2020/12/23 02:01:09;;;;;;;0.40;0.40;;;;;;;8.53;97.65;96122.09;1035728;28;20017;-68
2020/12/23 02:01:45;;;;;;;0.93;0.40;;;;;;;8.53;97.56;96123.94;1036169;28;20804;-70
2020/12/23 02:02:21;;;;;;;0.95;0.40;;;;;;;8.51;97.65;96124.19;1032075;28;20014;-70
2020/12/23 02:02:55;;;;;;;2.72;0.40;;;;;;;8.49;97.89;96123.66;1033720;28;20320;-69
2020/12/23 02:03:25;;;;;;;2.58;0.40;;;;;;;8.50;97.72;96124.44;1027924;28;20281;-68
2020/12/23 02:03:56;;;;;;;0.43;0.30;;;;;;;8.45;97.82;96125.22;1029463;28;20262;-67
2020/12/23 02:04:32;;;;;;;0.98;0.38;;;;;;;8.51;97.85;96124.19;1034552;28;20506;-68
2020/12/23 02:05:07;;;;;;;0.40;0.40;;;;;;;8.52;97.66;96135.53;1037130;28;20479;-71
2020/12/23 02:05:38;;;;;;;0.50;0.38;;;;;;;8.44;97.79;96123.63;1040159;28;20288;-69
2020/12/23 02:06:08;;;;;;;0.38;0.30;;;;;;;8.40;97.99;96122.53;1036121;28;20264;-69
2020/12/23 02:06:39;;;;;;;0.45;0.35;;;;;;;8.38;98.15;96129.09;1036065;28;20276;-66
2020/12/23 02:07:09;;;;;;;0.40;0.30;;;;;;;8.35;98.19;96130.41;1036163;28;20014;-71
2020/12/23 02:07:40;;;;;;;0.98;0.50;;;;;;;8.29;98.35;96126.16;1036280;28;20525;-73
2020/12/23 02:08:10;;;;;;;0.85;0.30;;;;;;;8.37;98.53;96132.81;1044344;28;20103;-68
2020/12/23 02:08:41;;;;;;;0.52;0.30;;;;;;;8.38;98.24;96131.75;1048408;28;20021;-70
2020/12/23 02:09:12;;;;;;;0.32;0.30;;;;;;;8.36;98.33;96129.34;1048371;28;20078;-68
2020/12/23 02:09:42;;;;;;;0.98;0.50;;;;;;;8.37;98.20;96127.53;1044142;28;20013;-70
2020/12/23 02:10:12;;;;;;;0.60;0.40;;;;;;;8.29;98.35;96132.22;1040270;28;20021;-68
2020/12/23 02:10:43;;;;;;;0.95;0.63;;;;;;;8.30;98.36;96133.00;1040185;28;20547;-69
2020/12/23 02:11:14;;;;;;;1.55;0.40;;;;;;;8.29;98.30;96131.44;1040182;28;20080;-69
2020/12/23 02:11:45;;;;;;;0.88;0.52;;;;;;;8.29;98.35;96121.69;1040100;28;20056;-68
2020/12/23 02:12:16;;;;;;;0.30;0.30;;;;;;;8.31;98.29;96124.06;1040114;28;20026;-67
2020/12/23 02:12:46;;;;;;;1.13;0.30;;;;;;;8.28;98.20;96130.63;1036217;28;20257;-70
2020/12/23 02:13:34;;;;;;;1.48;0.43;;;;;;;8.26;98.47;96124.03;1040187;28;20016;-71
2020/12/23 02:14:05;;;;;;;0.40;0.30;;;;;;;8.20;98.51;96122.41;1040231;28;20112;-71
2020/12/23 02:14:35;;;;;;;0.35;0.30;;;;;;;8.19;98.54;96123.47;1038548;28;20283;-72
2020/12/23 02:15:12;;;;;;;1.55;0.50;;;;;;;8.14;98.75;96119.72;1040220;28;20075;-70
2020/12/23 02:15:42;;;;;;;1.20;0.40;;;;;;;8.11;98.87;96130.81;1040044;28;20035;-67
2020/12/23 02:16:13;;;;;;;1.52;0.50;;;;;;;8.10;98.95;96123.94;1045107;28;20750;-69
2020/12/23 02:16:43;;;;;;;0.93;0.43;;;;;;;8.08;98.91;96131.28;1048498;28;20146;-71
2020/12/23 02:17:14;;;;;;;0.55;0.45;;;;;;;8.07;99.05;96128.94;1048417;28;20024;-70
2020/12/23 02:17:45;;;;;;;0.40;0.30;;;;;;;8.08;98.96;96125.25;1048161;28;20070;-67
2020/12/23 02:18:16;;;;;;;0.35;0.30;;;;;;;8.10;99.04;96128.41;1040440;28;20036;-70
2020/12/23 02:18:47;;;;;;;0.93;0.40;;;;;;;8.07;99.00;96126.31;1040439;28;20259;-69
2020/12/23 02:19:17;;;;;;;0.30;0.30;;;;;;;7.99;99.09;96124.94;1039984;28;20798;-68
2020/12/23 02:19:51;;;;;;;1.98;0.82;;;;;;;7.95;99.37;96129.13;1035790;28;20018;-69
2020/12/23 02:20:21;;;;;;;0.25;0.25;;;;;;;8.02;99.30;96127.03;1027922;28;20349;-70
2020/12/23 02:20:52;;;;;;;0.68;0.40;;;;;;;8.00;99.32;96121.22;1025376;28;20274;-70
2020/12/23 02:21:24;;;;;;;1.40;0.40;;;;;;;8.07;99.21;96129.72;1024439;28;20026;-70
2020/12/23 02:21:55;;;;;;;0.63;0.40;;;;;;;8.08;99.00;96128.66;1025078;28;20465;-70
2020/12/23 02:22:28;;;;;;;0.95;0.38;;;;;;;8.07;99.08;96129.72;1037294;28;20241;-67
2020/12/23 02:22:59;;;;;;;1.05;0.38;;;;;;;8.06;99.01;96128.13;1036780;28;20026;-69
2020/12/23 02:23:29;;;;;;;0.47;0.40;;;;;;;8.04;99.07;96124.94;1040852;28;20678;-71
2020/12/23 02:24:00;;;;;;;0.45;0.35;;;;;;;7.99;99.14;96122.28;1035536;28;20029;-68
2020/12/23 02:24:30;;;;;;;0.45;0.30;;;;;;;7.95;99.32;96126.47;1032078;28;20018;-69
2020/12/23 02:25:01;;;;;;;1.50;0.43;;;;;;;7.99;99.49;96129.38;1036098;28;20467;-73
2020/12/23 02:25:31;;;;;;;1.08;0.30;;;;;;;7.94;99.19;96128.31;1036041;28;20370;-72
2020/12/23 02:26:02;;;;;;;1.35;0.55;;;;;;;7.96;99.26;96130.69;1040220;28;20041;-69
2020/12/23 02:26:32;;;;;;;1.00;0.57;;;;;;;7.93;99.49;96128.56;1035980;28;20105;-69
2020/12/23 02:27:03;;;;;;;0.40;0.40;;;;;;;7.88;99.60;96129.31;1040145;28;20028;-72
2020/12/23 02:27:33;;;;;;;0.80;0.30;;;;;;;7.89;99.60;96128.28;1040060;28;20477;-69